Texhoma, Oklahoma
Current Conditions -  °F | °C
As of 7:53 PM on Thursday 20 Nov 2014 (Local Time) from KGUY Reporting Station
Clear Clear  
Wind Chill: 38°   Ceiling: Unl
Heat Index: 42°   Visibility: 10mi
Dew Point: 29°   Wind: 7mph
Humidity: 60%   Direction: 110°ESE
Pressure: 30.04"   Gusts: NA
Location:  36.51°N, 101.78°W
Report Text: KGUY 210153Z AUTO 11006KT 10SM CLR 06/M02 A3004 RMK AO2 SLP178 T00561017
Loading
Personal Weather Stations






























Interactive Weather Map New forecast layout! Learn more

10-Day Weather Forecast

Advertisements
Track Severe Weather on mobile